首页
METAR-TAF:

METAR-TAF

机场 :

Fort St. John, 不列颠哥伦比亚, 加拿大

纬度: 56-14N, 经度: 120-44W, 海拔: 695米

当前天气观测

该预报发布于49分钟前的18:00 UTC
风速21节,风向西南,有时为28节阵风
温度 14°C
湿度 44%
气压 1008 hPa
能見度: 96.5公里
少量云层高于4400英尺
多云层高于24000英尺

METAR: CYXJ 021800Z 23021G28KT 60SM FEW044 BKN240 14/02 A2978 RMK CU2CI3 SLP100 DENSITY ALT 2900FT

时间: 11:49 (18:49 UTC)

预报

该预报发布于4小时和11分钟前的14:38 UTC
预报有效从02日的 15点(UTC)到 03日的 03点(UTC)
风速18节,风向西转西南,有时为28节阵风
能見度: 10公里
少量云层高于6000英尺
散云层高于16000英尺
多云层高于20000英尺
从 02日的 2100点(UTC)
风速18节,风向西转西南,有时为28节阵风
能見度: 10公里
多云层高于6000英尺
多云层高于16000英尺
短暂存在
从 02日的 21点(UTC)到 03日的 03点(UTC)
能見度: 10公里
小阵雨

TAF: CYXJ 021438Z 0215/0303 24018G28KT P6SM FEW060 SCT160 BKN200 FM022100 24018G28KT P6SM BKN060 BKN160 TEMPO 0221/0303 P6SM -SHRA RMK NXT FCST BY 021900Z

超过4000个机场的气象观测和天气预报(METAR&TAF报告)。

可查询的气象台以黄色和红色小点在地图上表示。

将鼠标移到小点上方,可查看气象台名称。

然后点击查看天气观测和预报。

如需切换地图:点击带黑十字的绿色按钮放大地图;点击带横线的绿色按钮缩小地图;或者点击绿色箭头查看邻近地区的地图。


METAR-TAF: